sensor_id;sensor_type;location;lat;lon;timestamp;temperature;humidity
26691;DHT22;14307;51.718;8.938;2022-08-01T00:00:07;18.00;99.90
26691;DHT22;14307;51.718;8.938;2022-08-01T00:02:39;18.00;99.90
26691;DHT22;14307;51.718;8.938;2022-08-01T00:05:08;18.00;99.90
26691;DHT22;14307;51.718;8.938;2022-08-01T00:07:35;18.00;99.90
26691;DHT22;14307;51.718;8.938;2022-08-01T00:10:07;18.00;99.90
26691;DHT22;14307;51.718;8.938;2022-08-01T00:12:35;18.00;99.90
26691;DHT22;14307;51.718;8.938;2022-08-01T00:15:03;18.00;99.90
26691;DHT22;14307;51.718;8.938;2022-08-01T00:17:29;18.00;99.90
26691;DHT22;14307;51.718;8.938;2022-08-01T00:19:56;18.00;99.90
26691;DHT22;14307;51.718;8.938;2022-08-01T00:22:23;17.90;99.90
26691;DHT22;14307;51.718;8.938;2022-08-01T00:24:50;18.00;99.90
26691;DHT22;14307;51.718;8.938;2022-08-01T00:27:17;18.10;99.90
26691;DHT22;14307;51.718;8.938;2022-08-01T00:29:43;18.00;99.90
26691;DHT22;14307;51.718;8.938;2022-08-01T00:32:31;18.00;99.90
26691;DHT22;14307;51.718;8.938;2022-08-01T00:34:58;18.00;99.90
26691;DHT22;14307;51.718;8.938;2022-08-01T00:37:25;18.00;99.90
26691;DHT22;14307;51.718;8.938;2022-08-01T00:39:52;18.10;99.90
26691;DHT22;14307;51.718;8.938;2022-08-01T00:42:19;18.10;99.90
26691;DHT22;14307;51.718;8.938;2022-08-01T00:44:46;18.00;99.90
26691;DHT22;14307;51.718;8.938;2022-08-01T00:47:13;18.00;99.90
26691;DHT22;14307;51.718;8.938;2022-08-01T00:49:40;18.00;99.90
26691;DHT22;14307;51.718;8.938;2022-08-01T00:52:08;18.00;99.90
26691;DHT22;14307;51.718;8.938;2022-08-01T00:54:36;17.90;99.90
26691;DHT22;14307;51.718;8.938;2022-08-01T00:57:04;17.90;99.90
26691;DHT22;14307;51.718;8.938;2022-08-01T00:59:36;18.00;99.90
26691;DHT22;14307;51.718;8.938;2022-08-01T01:02:07;18.00;99.90
26691;DHT22;14307;51.718;8.938;2022-08-01T01:04:41;18.00;99.90
26691;DHT22;14307;51.718;8.938;2022-08-01T01:07:21;18.00;99.90
26691;DHT22;14307;51.718;8.938;2022-08-01T01:15:23;18.00;99.90
26691;DHT22;14307;51.718;8.938;2022-08-01T01:18:03;18.10;99.90
26691;DHT22;14307;51.718;8.938;2022-08-01T01:20:34;18.00;99.90
26691;DHT22;14307;51.718;8.938;2022-08-01T01:26:08;17.90;99.90
26691;DHT22;14307;51.718;8.938;2022-08-01T01:31:36;17.90;99.90
26691;DHT22;14307;51.718;8.938;2022-08-01T01:34:08;17.90;99.90
26691;DHT22;14307;51.718;8.938;2022-08-01T01:36:35;18.00;99.90
26691;DHT22;14307;51.718;8.938;2022-08-01T01:39:03;18.00;99.90
26691;DHT22;14307;51.718;8.938;2022-08-01T01:41:30;17.90;99.90
26691;DHT22;14307;51.718;8.938;2022-08-01T01:43:58;17.90;99.90
26691;DHT22;14307;51.718;8.938;2022-08-01T01:46:28;17.90;99.90
26691;DHT22;14307;51.718;8.938;2022-08-01T01:48:56;17.90;99.90
26691;DHT22;14307;51.718;8.938;2022-08-01T01:51:25;17.90;99.90
26691;DHT22;14307;51.718;8.938;2022-08-01T01:53:55;17.90;99.90
26691;DHT22;14307;51.718;8.938;2022-08-01T01:56:23;17.90;99.90
26691;DHT22;14307;51.718;8.938;2022-08-01T01:58:54;17.90;99.90
26691;DHT22;14307;51.718;8.938;2022-08-01T02:01:26;17.90;99.90
26691;DHT22;14307;51.718;8.938;2022-08-01T02:04:14;17.90;99.90
26691;DHT22;14307;51.718;8.938;2022-08-01T02:06:41;17.90;99.90
26691;DHT22;14307;51.718;8.938;2022-08-01T02:09:09;17.90;99.90
26691;DHT22;14307;51.718;8.938;2022-08-01T02:11:39;17.90;99.90
26691;DHT22;14307;51.718;8.938;2022-08-01T02:14:27;17.80;99.90
26691;DHT22;14307;51.718;8.938;2022-08-01T02:16:57;17.80;99.90
26691;DHT22;14307;51.718;8.938;2022-08-01T02:19:24;17.70;99.90
26691;DHT22;14307;51.718;8.938;2022-08-01T02:24:35;17.80;99.90
26691;DHT22;14307;51.718;8.938;2022-08-01T02:27:09;17.70;99.90
26691;DHT22;14307;51.718;8.938;2022-08-01T02:29:50;17.70;99.90
26691;DHT22;14307;51.718;8.938;2022-08-01T02:35:04;17.60;99.90
26691;DHT22;14307;51.718;8.938;2022-08-01T02:37:36;17.60;99.90
26691;DHT22;14307;51.718;8.938;2022-08-01T02:40:12;17.60;99.90
26691;DHT22;14307;51.718;8.938;2022-08-01T02:42:47;17.60;99.90
26691;DHT22;14307;51.718;8.938;2022-08-01T02:45:15;17.50;99.90
26691;DHT22;14307;51.718;8.938;2022-08-01T02:47:45;17.60;99.90
26691;DHT22;14307;51.718;8.938;2022-08-01T02:50:14;17.60;99.90
26691;DHT22;14307;51.718;8.938;2022-08-01T02:52:46;17.60;99.90
26691;DHT22;14307;51.718;8.938;2022-08-01T02:55:14;17.60;99.90
26691;DHT22;14307;51.718;8.938;2022-08-01T02:57:46;17.60;99.90
26691;DHT22;14307;51.718;8.938;2022-08-01T03:00:18;17.60;99.90
26691;DHT22;14307;51.718;8.938;2022-08-01T03:02:51;17.50;99.90
26691;DHT22;14307;51.718;8.938;2022-08-01T03:05:20;17.50;99.90
26691;DHT22;14307;51.718;8.938;2022-08-01T03:07:49;17.50;99.90
26691;DHT22;14307;51.718;8.938;2022-08-01T03:10:17;17.50;99.90
26691;DHT22;14307;51.718;8.938;2022-08-01T03:12:45;17.50;99.90
26691;DHT22;14307;51.718;8.938;2022-08-01T03:15:14;17.50;99.90
26691;DHT22;14307;51.718;8.938;2022-08-01T03:17:47;17.50;99.90
26691;DHT22;14307;51.718;8.938;2022-08-01T03:20:16;17.40;99.90
26691;DHT22;14307;51.718;8.938;2022-08-01T03:22:52;17.50;99.90
26691;DHT22;14307;51.718;8.938;2022-08-01T03:25:20;17.40;99.90
26691;DHT22;14307;51.718;8.938;2022-08-01T03:27:51;17.40;99.90
26691;DHT22;14307;51.718;8.938;2022-08-01T03:30:22;17.40;99.90
26691;DHT22;14307;51.718;8.938;2022-08-01T03:32:50;17.40;99.90
26691;DHT22;14307;51.718;8.938;2022-08-01T03:35:17;17.50;99.90
26691;DHT22;14307;51.718;8.938;2022-08-01T03:37:49;17.40;99.90
26691;DHT22;14307;51.718;8.938;2022-08-01T03:40:40;17.40;99.90
26691;DHT22;14307;51.718;8.938;2022-08-01T03:43:15;17.30;99.90
26691;DHT22;14307;51.718;8.938;2022-08-01T03:45:48;17.30;99.90
26691;DHT22;14307;51.718;8.938;2022-08-01T03:48:18;17.20;99.90
26691;DHT22;14307;51.718;8.938;2022-08-01T03:50:51;17.20;99.90
26691;DHT22;14307;51.718;8.938;2022-08-01T03:53:23;17.30;99.90
26691;DHT22;14307;51.718;8.938;2022-08-01T03:55:52;17.30;99.90
26691;DHT22;14307;51.718;8.938;2022-08-01T03:58:21;17.20;99.90
26691;DHT22;14307;51.718;8.938;2022-08-01T04:00:48;17.20;99.90
26691;DHT22;14307;51.718;8.938;2022-08-01T04:03:16;17.10;99.90
26691;DHT22;14307;51.718;8.938;2022-08-01T04:05:46;17.20;99.90
26691;DHT22;14307;51.718;8.938;2022-08-01T04:08:13;17.10;99.90
26691;DHT22;14307;51.718;8.938;2022-08-01T04:10:39;17.20;99.90
26691;DHT22;14307;51.718;8.938;2022-08-01T04:13:06;17.30;99.90
26691;DHT22;14307;51.718;8.938;2022-08-01T04:15:34;17.30;99.90
26691;DHT22;14307;51.718;8.938;2022-08-01T04:18:00;17.30;99.90
26691;DHT22;14307;51.718;8.938;2022-08-01T04:20:27;17.30;99.90
26691;DHT22;14307;51.718;8.938;2022-08-01T04:22:54;17.20;99.90
26691;DHT22;14307;51.718;8.938;2022-08-01T04:25:34;17.10;99.90
26691;DHT22;14307;51.718;8.938;2022-08-01T04:28:07;17.10;99.90
26691;DHT22;14307;51.718;8.938;2022-08-01T04:30:38;17.20;99.90
26691;DHT22;14307;51.718;8.938;2022-08-01T04:33:06;17.10;99.90
26691;DHT22;14307;51.718;8.938;2022-08-01T04:35:35;17.20;99.90
26691;DHT22;14307;51.718;8.938;2022-08-01T04:38:25;17.20;99.90
26691;DHT22;14307;51.718;8.938;2022-08-01T04:40:54;17.30;99.90
26691;DHT22;14307;51.718;8.938;2022-08-01T04:43:21;17.30;99.90
26691;DHT22;14307;51.718;8.938;2022-08-01T04:45:50;17.20;99.90
26691;DHT22;14307;51.718;8.938;2022-08-01T04:48:18;17.20;99.90
26691;DHT22;14307;51.718;8.938;2022-08-01T04:50:49;17.30;99.90
26691;DHT22;14307;51.718;8.938;2022-08-01T04:53:20;17.20;99.90
26691;DHT22;14307;51.718;8.938;2022-08-01T04:55:48;17.20;99.90
26691;DHT22;14307;51.718;8.938;2022-08-01T04:58:15;17.20;99.90
26691;DHT22;14307;51.718;8.938;2022-08-01T05:00:48;17.20;99.90
26691;DHT22;14307;51.718;8.938;2022-08-01T05:03:15;17.20;99.90
26691;DHT22;14307;51.718;8.938;2022-08-01T05:05:42;17.20;99.90
26691;DHT22;14307;51.718;8.938;2022-08-01T05:08:09;17.30;99.90
26691;DHT22;14307;51.718;8.938;2022-08-01T05:10:36;17.20;99.90
26691;DHT22;14307;51.718;8.938;2022-08-01T05:13:03;17.20;99.90
26691;DHT22;14307;51.718;8.938;2022-08-01T05:15:30;17.20;99.90
26691;DHT22;14307;51.718;8.938;2022-08-01T05:17:57;17.20;99.90
26691;DHT22;14307;51.718;8.938;2022-08-01T05:20:24;17.30;99.90
26691;DHT22;14307;51.718;8.938;2022-08-01T05:22:51;17.30;99.90
26691;DHT22;14307;51.718;8.938;2022-08-01T05:25:18;17.30;99.90
26691;DHT22;14307;51.718;8.938;2022-08-01T05:28:04;17.30;99.90
26691;DHT22;14307;51.718;8.938;2022-08-01T05:30:31;17.30;99.90
26691;DHT22;14307;51.718;8.938;2022-08-01T05:32:58;17.30;99.90
26691;DHT22;14307;51.718;8.938;2022-08-01T05:35:25;17.30;99.90
26691;DHT22;14307;51.718;8.938;2022-08-01T05:38:12;17.30;99.90
26691;DHT22;14307;51.718;8.938;2022-08-01T05:40:40;17.40;99.90
26691;DHT22;14307;51.718;8.938;2022-08-01T05:43:07;17.30;99.90
26691;DHT22;14307;51.718;8.938;2022-08-01T05:45:34;17.40;99.90
26691;DHT22;14307;51.718;8.938;2022-08-01T05:48:01;17.40;99.90
26691;DHT22;14307;51.718;8.938;2022-08-01T05:50:27;17.50;99.90
26691;DHT22;14307;51.718;8.938;2022-08-01T05:52:54;17.40;99.90
26691;DHT22;14307;51.718;8.938;2022-08-01T05:55:21;17.40;99.90
26691;DHT22;14307;51.718;8.938;2022-08-01T05:57:48;17.50;99.90
26691;DHT22;14307;51.718;8.938;2022-08-01T06:00:15;17.60;99.90
26691;DHT22;14307;51.718;8.938;2022-08-01T06:02:42;17.50;99.90
26691;DHT22;14307;51.718;8.938;2022-08-01T06:05:13;17.60;99.90
26691;DHT22;14307;51.718;8.938;2022-08-01T06:07:39;17.60;99.90
26691;DHT22;14307;51.718;8.938;2022-08-01T06:10:07;17.60;99.90
26691;DHT22;14307;51.718;8.938;2022-08-01T06:12:38;17.70;99.90
26691;DHT22;14307;51.718;8.938;2022-08-01T06:15:06;17.60;99.90
26691;DHT22;14307;51.718;8.938;2022-08-01T06:17:33;17.60;99.90
26691;DHT22;14307;51.718;8.938;2022-08-01T06:20:00;17.80;99.90
26691;DHT22;14307;51.718;8.938;2022-08-01T06:22:27;17.80;99.90
26691;DHT22;14307;51.718;8.938;2022-08-01T06:24:54;17.90;99.90
26691;DHT22;14307;51.718;8.938;2022-08-01T06:27:21;18.00;99.90
26691;DHT22;14307;51.718;8.938;2022-08-01T06:29:48;17.90;99.90
26691;DHT22;14307;51.718;8.938;2022-08-01T06:32:20;18.00;99.90
26691;DHT22;14307;51.718;8.938;2022-08-01T06:34:54;17.80;99.90
26691;DHT22;14307;51.718;8.938;2022-08-01T06:37:22;17.90;99.90
26691;DHT22;14307;51.718;8.938;2022-08-01T06:39:49;18.00;99.90
26691;DHT22;14307;51.718;8.938;2022-08-01T06:42:16;18.00;99.90
26691;DHT22;14307;51.718;8.938;2022-08-01T06:44:43;17.90;99.90
26691;DHT22;14307;51.718;8.938;2022-08-01T06:47:11;17.80;99.90
26691;DHT22;14307;51.718;8.938;2022-08-01T06:49:38;17.90;99.90
26691;DHT22;14307;51.718;8.938;2022-08-01T06:52:04;17.90;99.90
26691;DHT22;14307;51.718;8.938;2022-08-01T06:54:32;17.80;99.90
26691;DHT22;14307;51.718;8.938;2022-08-01T06:56:58;17.90;99.90
26691;DHT22;14307;51.718;8.938;2022-08-01T06:59:25;18.00;99.90
26691;DHT22;14307;51.718;8.938;2022-08-01T07:01:52;18.00;99.90
26691;DHT22;14307;51.718;8.938;2022-08-01T07:04:19;18.10;99.90
26691;DHT22;14307;51.718;8.938;2022-08-01T07:06:46;18.10;99.90
26691;DHT22;14307;51.718;8.938;2022-08-01T07:09:12;18.30;99.90
26691;DHT22;14307;51.718;8.938;2022-08-01T07:11:40;18.40;99.90
26691;DHT22;14307;51.718;8.938;2022-08-01T07:14:07;18.30;99.90
26691;DHT22;14307;51.718;8.938;2022-08-01T07:16:34;18.30;99.90
26691;DHT22;14307;51.718;8.938;2022-08-01T07:19:01;18.20;99.90
26691;DHT22;14307;51.718;8.938;2022-08-01T07:21:28;18.20;99.90
26691;DHT22;14307;51.718;8.938;2022-08-01T07:24:08;18.30;99.90
26691;DHT22;14307;51.718;8.938;2022-08-01T07:26:42;18.30;99.90
26691;DHT22;14307;51.718;8.938;2022-08-01T07:29:21;18.20;99.90
26691;DHT22;14307;51.718;8.938;2022-08-01T07:31:47;18.40;99.90
26691;DHT22;14307;51.718;8.938;2022-08-01T07:34:14;18.70;99.90
26691;DHT22;14307;51.718;8.938;2022-08-01T07:36:41;18.70;99.90
26691;DHT22;14307;51.718;8.938;2022-08-01T07:39:07;18.70;99.90
26691;DHT22;14307;51.718;8.938;2022-08-01T07:41:34;18.70;99.90
26691;DHT22;14307;51.718;8.938;2022-08-01T07:44:21;18.80;99.90
26691;DHT22;14307;51.718;8.938;2022-08-01T07:46:48;18.80;99.90
26691;DHT22;14307;51.718;8.938;2022-08-01T07:49:15;18.70;99.90
26691;DHT22;14307;51.718;8.938;2022-08-01T07:51:42;18.60;99.90
26691;DHT22;14307;51.718;8.938;2022-08-01T07:54:29;18.50;99.90
26691;DHT22;14307;51.718;8.938;2022-08-01T07:57:00;18.40;99.90
26691;DHT22;14307;51.718;8.938;2022-08-01T07:59:27;18.40;99.90
26691;DHT22;14307;51.718;8.938;2022-08-01T08:01:54;18.40;99.90
26691;DHT22;14307;51.718;8.938;2022-08-01T08:04:21;18.50;99.90
26691;DHT22;14307;51.718;8.938;2022-08-01T08:06:48;18.50;99.90
26691;DHT22;14307;51.718;8.938;2022-08-01T08:09:15;18.70;99.90
26691;DHT22;14307;51.718;8.938;2022-08-01T08:11:45;18.90;99.90
26691;DHT22;14307;51.718;8.938;2022-08-01T08:14:14;18.90;99.90
26691;DHT22;14307;51.718;8.938;2022-08-01T08:16:42;19.20;99.90
26691;DHT22;14307;51.718;8.938;2022-08-01T08:19:09;19.30;99.90
26691;DHT22;14307;51.718;8.938;2022-08-01T08:21:37;19.30;99.90
26691;DHT22;14307;51.718;8.938;2022-08-01T08:24:04;19.50;99.90
26691;DHT22;14307;51.718;8.938;2022-08-01T08:27:00;19.60;99.90
26691;DHT22;14307;51.718;8.938;2022-08-01T08:29:28;19.90;99.90
26691;DHT22;14307;51.718;8.938;2022-08-01T08:31:56;20.00;99.90
26691;DHT22;14307;51.718;8.938;2022-08-01T08:34:24;20.00;99.90
26691;DHT22;14307;51.718;8.938;2022-08-01T08:36:51;20.00;99.90
26691;DHT22;14307;51.718;8.938;2022-08-01T08:39:19;19.90;99.90
26691;DHT22;14307;51.718;8.938;2022-08-01T08:41:47;19.90;99.90
26691;DHT22;14307;51.718;8.938;2022-08-01T08:44:15;19.70;99.90
26691;DHT22;14307;51.718;8.938;2022-08-01T08:46:48;19.40;99.90
26691;DHT22;14307;51.718;8.938;2022-08-01T08:49:26;19.20;99.90
26691;DHT22;14307;51.718;8.938;2022-08-01T08:52:03;19.10;99.90
26691;DHT22;14307;51.718;8.938;2022-08-01T08:54:31;19.20;99.90
26691;DHT22;14307;51.718;8.938;2022-08-01T08:57:00;19.30;99.90
26691;DHT22;14307;51.718;8.938;2022-08-01T08:59:27;19.30;99.90
26691;DHT22;14307;51.718;8.938;2022-08-01T09:01:55;19.20;99.90
26691;DHT22;14307;51.718;8.938;2022-08-01T09:04:23;19.20;99.90
26691;DHT22;14307;51.718;8.938;2022-08-01T09:06:53;19.20;99.90
26691;DHT22;14307;51.718;8.938;2022-08-01T09:09:20;19.10;99.90
26691;DHT22;14307;51.718;8.938;2022-08-01T09:11:47;19.00;99.90
26691;DHT22;14307;51.718;8.938;2022-08-01T09:14:24;19.10;99.90
26691;DHT22;14307;51.718;8.938;2022-08-01T09:17:03;19.10;99.90
26691;DHT22;14307;51.718;8.938;2022-08-01T09:19:41;19.10;99.90
26691;DHT22;14307;51.718;8.938;2022-08-01T09:22:10;19.10;99.90
26691;DHT22;14307;51.718;8.938;2022-08-01T09:24:39;19.10;99.90
26691;DHT22;14307;51.718;8.938;2022-08-01T09:27:20;19.20;99.90
26691;DHT22;14307;51.718;8.938;2022-08-01T09:29:52;19.10;99.90
26691;DHT22;14307;51.718;8.938;2022-08-01T09:32:30;19.20;99.90
26691;DHT22;14307;51.718;8.938;2022-08-01T09:35:24;19.00;99.90
26691;DHT22;14307;51.718;8.938;2022-08-01T09:40:56;19.00;99.90
26691;DHT22;14307;51.718;8.938;2022-08-01T09:43:29;19.30;99.90
26691;DHT22;14307;51.718;8.938;2022-08-01T09:45:58;19.30;99.90
26691;DHT22;14307;51.718;8.938;2022-08-01T09:48:25;19.50;99.90
26691;DHT22;14307;51.718;8.938;2022-08-01T09:50:57;19.80;99.90
26691;DHT22;14307;51.718;8.938;2022-08-01T09:53:48;20.10;99.90
26691;DHT22;14307;51.718;8.938;2022-08-01T09:56:19;20.20;99.90
26691;DHT22;14307;51.718;8.938;2022-08-01T09:58:58;20.30;99.90
26691;DHT22;14307;51.718;8.938;2022-08-01T10:01:40;20.50;99.90
26691;DHT22;14307;51.718;8.938;2022-08-01T10:04:08;20.60;99.90
26691;DHT22;14307;51.718;8.938;2022-08-01T10:06:39;20.60;99.90
26691;DHT22;14307;51.718;8.938;2022-08-01T10:09:07;20.50;99.90
26691;DHT22;14307;51.718;8.938;2022-08-01T10:11:35;20.50;99.90
26691;DHT22;14307;51.718;8.938;2022-08-01T10:14:06;20.50;99.90
26691;DHT22;14307;51.718;8.938;2022-08-01T10:16:35;20.40;99.90
26691;DHT22;14307;51.718;8.938;2022-08-01T10:19:06;20.30;99.90
26691;DHT22;14307;51.718;8.938;2022-08-01T10:21:41;20.30;99.90
26691;DHT22;14307;51.718;8.938;2022-08-01T10:24:26;20.30;99.90
26691;DHT22;14307;51.718;8.938;2022-08-01T10:27:01;20.20;99.90
26691;DHT22;14307;51.718;8.938;2022-08-01T10:29:39;20.10;99.90
26691;DHT22;14307;51.718;8.938;2022-08-01T10:32:25;20.10;99.90
26691;DHT22;14307;51.718;8.938;2022-08-01T10:34:55;20.10;99.90
26691;DHT22;14307;51.718;8.938;2022-08-01T10:37:23;20.00;99.90
26691;DHT22;14307;51.718;8.938;2022-08-01T10:39:56;19.70;99.90
26691;DHT22;14307;51.718;8.938;2022-08-01T10:42:44;19.60;99.90
26691;DHT22;14307;51.718;8.938;2022-08-01T10:45:14;19.40;99.90
26691;DHT22;14307;51.718;8.938;2022-08-01T10:48:18;19.50;99.90
26691;DHT22;14307;51.718;8.938;2022-08-01T10:50:48;19.30;99.90
26691;DHT22;14307;51.718;8.938;2022-08-01T10:53:16;19.30;99.90
26691;DHT22;14307;51.718;8.938;2022-08-01T10:55:52;19.40;99.90
26691;DHT22;14307;51.718;8.938;2022-08-01T10:58:31;19.30;99.90
26691;DHT22;14307;51.718;8.938;2022-08-01T11:01:15;19.10;99.90
26691;DHT22;14307;51.718;8.938;2022-08-01T11:03:46;19.00;99.90
26691;DHT22;14307;51.718;8.938;2022-08-01T11:12:04;18.70;99.90
26691;DHT22;14307;51.718;8.938;2022-08-01T11:17:39;18.50;99.90
26691;DHT22;14307;51.718;8.938;2022-08-01T11:20:16;18.50;99.90
26691;DHT22;14307;51.718;8.938;2022-08-01T11:28:24;18.80;99.90
26691;DHT22;14307;51.718;8.938;2022-08-01T11:41:23;19.20;99.90
26691;DHT22;14307;51.718;8.938;2022-08-01T11:44:20;19.10;99.90
26691;DHT22;14307;51.718;8.938;2022-08-01T11:47:03;19.20;99.90
26691;DHT22;14307;51.718;8.938;2022-08-01T11:49:46;19.20;99.90
26691;DHT22;14307;51.718;8.938;2022-08-01T11:52:29;19.10;99.90
26691;DHT22;14307;51.718;8.938;2022-08-01T11:55:07;19.10;99.90
26691;DHT22;14307;51.718;8.938;2022-08-01T11:57:37;19.00;99.90
26691;DHT22;14307;51.718;8.938;2022-08-01T12:00:13;18.80;99.90
26691;DHT22;14307;51.718;8.938;2022-08-01T12:02:43;18.80;99.90
26691;DHT22;14307;51.718;8.938;2022-08-01T12:05:13;18.70;99.90
26691;DHT22;14307;51.718;8.938;2022-08-01T12:07:42;18.80;99.90
26691;DHT22;14307;51.718;8.938;2022-08-01T12:10:13;18.90;99.90
26691;DHT22;14307;51.718;8.938;2022-08-01T12:12:47;18.90;99.90
26691;DHT22;14307;51.718;8.938;2022-08-01T12:15:15;18.90;99.90
26691;DHT22;14307;51.718;8.938;2022-08-01T12:17:45;19.00;99.90
26691;DHT22;14307;51.718;8.938;2022-08-01T12:20:27;19.10;99.90
26691;DHT22;14307;51.718;8.938;2022-08-01T12:23:00;19.00;99.90
26691;DHT22;14307;51.718;8.938;2022-08-01T12:25:28;19.00;99.90
26691;DHT22;14307;51.718;8.938;2022-08-01T12:27:58;19.10;99.90
26691;DHT22;14307;51.718;8.938;2022-08-01T12:30:25;19.40;99.90
26691;DHT22;14307;51.718;8.938;2022-08-01T12:32:54;19.40;99.90
26691;DHT22;14307;51.718;8.938;2022-08-01T12:35:26;19.40;99.90
26691;DHT22;14307;51.718;8.938;2022-08-01T12:40:35;19.60;99.90
26691;DHT22;14307;51.718;8.938;2022-08-01T12:43:09;19.60;99.90
26691;DHT22;14307;51.718;8.938;2022-08-01T12:45:54;19.60;99.90
26691;DHT22;14307;51.718;8.938;2022-08-01T12:48:23;19.80;99.90
26691;DHT22;14307;51.718;8.938;2022-08-01T12:50:52;19.80;99.90
26691;DHT22;14307;51.718;8.938;2022-08-01T12:53:19;19.90;99.90
26691;DHT22;14307;51.718;8.938;2022-08-01T12:55:52;20.20;99.90
26691;DHT22;14307;51.718;8.938;2022-08-01T12:58:31;20.50;99.90
26691;DHT22;14307;51.718;8.938;2022-08-01T13:01:04;20.60;99.90
26691;DHT22;14307;51.718;8.938;2022-08-01T13:03:32;20.80;99.90
26691;DHT22;14307;51.718;8.938;2022-08-01T13:05:59;20.80;99.90
26691;DHT22;14307;51.718;8.938;2022-08-01T13:08:31;20.60;99.90
26691;DHT22;14307;51.718;8.938;2022-08-01T13:11:05;20.70;99.90
26691;DHT22;14307;51.718;8.938;2022-08-01T13:13:46;20.70;99.90
26691;DHT22;14307;51.718;8.938;2022-08-01T13:16:16;20.60;99.90
26691;DHT22;14307;51.718;8.938;2022-08-01T13:19:04;20.70;99.90
26691;DHT22;14307;51.718;8.938;2022-08-01T13:21:31;20.70;99.90
26691;DHT22;14307;51.718;8.938;2022-08-01T13:24:26;20.60;99.90
26691;DHT22;14307;51.718;8.938;2022-08-01T13:27:02;20.50;99.90
26691;DHT22;14307;51.718;8.938;2022-08-01T13:29:38;20.20;99.90
26691;DHT22;14307;51.718;8.938;2022-08-01T13:32:14;19.90;99.90
26691;DHT22;14307;51.718;8.938;2022-08-01T13:35:07;19.90;99.90
26691;DHT22;14307;51.718;8.938;2022-08-01T13:37:36;19.90;99.90
26691;DHT22;14307;51.718;8.938;2022-08-01T13:40:05;20.10;99.90
26691;DHT22;14307;51.718;8.938;2022-08-01T13:42:32;20.10;99.90
26691;DHT22;14307;51.718;8.938;2022-08-01T13:44:59;20.20;99.90
26691;DHT22;14307;51.718;8.938;2022-08-01T13:47:28;20.30;99.90
26691;DHT22;14307;51.718;8.938;2022-08-01T13:49:59;20.40;99.90
26691;DHT22;14307;51.718;8.938;2022-08-01T13:52:28;20.60;99.90
26691;DHT22;14307;51.718;8.938;2022-08-01T13:54:55;20.70;99.90
26691;DHT22;14307;51.718;8.938;2022-08-01T13:57:22;20.60;99.90
26691;DHT22;14307;51.718;8.938;2022-08-01T13:59:49;20.70;99.90
26691;DHT22;14307;51.718;8.938;2022-08-01T14:02:16;20.80;99.90
26691;DHT22;14307;51.718;8.938;2022-08-01T14:04:43;20.80;99.90
26691;DHT22;14307;51.718;8.938;2022-08-01T14:07:09;20.90;99.90
26691;DHT22;14307;51.718;8.938;2022-08-01T14:09:41;21.10;99.90
26691;DHT22;14307;51.718;8.938;2022-08-01T14:12:28;21.10;99.90
26691;DHT22;14307;51.718;8.938;2022-08-01T14:14:55;21.20;99.90
26691;DHT22;14307;51.718;8.938;2022-08-01T14:17:22;21.00;99.90
26691;DHT22;14307;51.718;8.938;2022-08-01T14:19:49;21.00;99.90
26691;DHT22;14307;51.718;8.938;2022-08-01T14:22:16;21.10;99.90
26691;DHT22;14307;51.718;8.938;2022-08-01T14:24:43;21.20;99.90
26691;DHT22;14307;51.718;8.938;2022-08-01T14:27:10;21.20;99.90
26691;DHT22;14307;51.718;8.938;2022-08-01T14:29:36;21.10;99.90
26691;DHT22;14307;51.718;8.938;2022-08-01T14:32:23;21.00;99.90
26691;DHT22;14307;51.718;8.938;2022-08-01T14:34:55;20.90;99.90
26691;DHT22;14307;51.718;8.938;2022-08-01T14:37:23;20.90;99.90
26691;DHT22;14307;51.718;8.938;2022-08-01T14:39:55;21.10;99.90
26691;DHT22;14307;51.718;8.938;2022-08-01T14:42:24;21.30;99.90
26691;DHT22;14307;51.718;8.938;2022-08-01T14:44:51;21.50;99.90
26691;DHT22;14307;51.718;8.938;2022-08-01T14:47:18;21.40;99.90
26691;DHT22;14307;51.718;8.938;2022-08-01T14:49:48;21.20;99.90
26691;DHT22;14307;51.718;8.938;2022-08-01T14:52:15;21.20;99.90
26691;DHT22;14307;51.718;8.938;2022-08-01T14:54:42;21.30;99.90
26691;DHT22;14307;51.718;8.938;2022-08-01T14:57:09;21.50;99.90
26691;DHT22;14307;51.718;8.938;2022-08-01T14:59:36;21.50;99.90
26691;DHT22;14307;51.718;8.938;2022-08-01T15:02:03;21.60;99.90
26691;DHT22;14307;51.718;8.938;2022-08-01T15:04:30;21.50;99.90
26691;DHT22;14307;51.718;8.938;2022-08-01T15:06:57;21.60;99.90
26691;DHT22;14307;51.718;8.938;2022-08-01T15:09:24;21.50;99.90
26691;DHT22;14307;51.718;8.938;2022-08-01T15:11:50;21.70;99.90
26691;DHT22;14307;51.718;8.938;2022-08-01T15:14:17;21.70;99.90
26691;DHT22;14307;51.718;8.938;2022-08-01T15:17:03;21.90;99.90
26691;DHT22;14307;51.718;8.938;2022-08-01T15:19:29;22.00;99.90
26691;DHT22;14307;51.718;8.938;2022-08-01T15:21:56;22.30;99.90
26691;DHT22;14307;51.718;8.938;2022-08-01T15:24:24;22.40;99.90
26691;DHT22;14307;51.718;8.938;2022-08-01T15:26:51;22.50;99.90
26691;DHT22;14307;51.718;8.938;2022-08-01T15:29:18;22.60;99.90
26691;DHT22;14307;51.718;8.938;2022-08-01T15:31:45;22.40;99.90
26691;DHT22;14307;51.718;8.938;2022-08-01T15:34:12;22.10;99.90
26691;DHT22;14307;51.718;8.938;2022-08-01T15:36:39;21.90;99.90
26691;DHT22;14307;51.718;8.938;2022-08-01T15:39:12;21.90;99.90
26691;DHT22;14307;51.718;8.938;2022-08-01T15:41:39;21.90;99.90
26691;DHT22;14307;51.718;8.938;2022-08-01T15:44:05;21.80;99.90
26691;DHT22;14307;51.718;8.938;2022-08-01T15:46:32;21.90;99.90
26691;DHT22;14307;51.718;8.938;2022-08-01T15:49:04;21.90;99.90
26691;DHT22;14307;51.718;8.938;2022-08-01T15:51:32;21.70;99.90
26691;DHT22;14307;51.718;8.938;2022-08-01T15:53:59;21.60;99.90
26691;DHT22;14307;51.718;8.938;2022-08-01T15:56:29;21.80;99.90
26691;DHT22;14307;51.718;8.938;2022-08-01T15:58:56;21.70;99.90
26691;DHT22;14307;51.718;8.938;2022-08-01T16:01:23;21.80;99.90
26691;DHT22;14307;51.718;8.938;2022-08-01T16:03:54;21.90;99.90
26691;DHT22;14307;51.718;8.938;2022-08-01T16:06:21;21.80;99.90
26691;DHT22;14307;51.718;8.938;2022-08-01T16:08:48;21.70;99.90
26691;DHT22;14307;51.718;8.938;2022-08-01T16:11:16;21.40;99.90
26691;DHT22;14307;51.718;8.938;2022-08-01T16:13:42;21.30;99.90
26691;DHT22;14307;51.718;8.938;2022-08-01T16:16:11;21.20;99.90
26691;DHT22;14307;51.718;8.938;2022-08-01T16:18:38;21.40;99.90
26691;DHT22;14307;51.718;8.938;2022-08-01T16:21:05;21.40;99.90
26691;DHT22;14307;51.718;8.938;2022-08-01T16:23:33;21.50;99.90
26691;DHT22;14307;51.718;8.938;2022-08-01T16:26:00;21.50;99.90
26691;DHT22;14307;51.718;8.938;2022-08-01T16:28:27;21.60;99.90
26691;DHT22;14307;51.718;8.938;2022-08-01T16:30:54;21.60;99.90
26691;DHT22;14307;51.718;8.938;2022-08-01T16:33:41;21.70;99.90
26691;DHT22;14307;51.718;8.938;2022-08-01T16:36:21;21.50;99.90
26691;DHT22;14307;51.718;8.938;2022-08-01T16:38:50;21.20;99.90